« Back
NWS Peachtree City, Ga » Text Product » CSG Terminal Aerodrome Forecast


Printer-friendly Version
Current Version              Previous Versions:   1  2  3  4  5  6  7  8  9  

Terminal Aerodrome Forecast

170
FTUS42 KFFC 310500
TAFCSG
TAF
KCSG 310525Z 3106/0106 04003KT P6SM SCT250
     FM311600 11004KT P6SM SCT040 SCT250
     FM311800 09005KT P6SM BKN050
     FM010000 07005KT P6SM BKN150=



USA.gov is the U.S. government's official web portal to all federal, state and local government web resources and services.